Time;durP1;ratioP1;P1;durP2;ratioP2;P2;SDS_P1;SDS_P2;PMS_P1;PMS_P2;Temp;Humidity;BMP_temperature;BMP_pressure;BME280_temperature;BME280_humidity;BME280_pressure;Samples;Min_cycle;Max_cycle;Signal;HPM_P1;HPM_P2
2022/08/13 00:01:36;;;;;;;5.65;2.63;;;20.00;96.40;;;;;;4974274;28;20411;-63
2022/08/13 00:04:04;;;;;;;5.82;2.70;;;20.00;96.70;;;;;;4957913;28;20050;-63
2022/08/13 00:09:17;;;;;;;6.40;2.67;;;19.90;97.10;;;;;;4974703;28;20443;-62
2022/08/13 00:14:32;;;;;;;5.85;2.90;;;19.80;97.50;;;;;;4954128;28;20134;-63
2022/08/13 00:17:00;;;;;;;4.63;2.50;;;19.80;97.70;;;;;;4974687;28;20042;-62
2022/08/13 00:19:29;;;;;;;9.20;3.05;;;19.80;97.90;;;;;;4975016;28;20395;-62
2022/08/13 00:21:57;;;;;;;4.22;2.35;;;19.80;98.20;;;;;;4974918;28;20069;-62
2022/08/13 00:24:25;;;;;;;5.82;2.22;;;19.70;98.20;;;;;;4974205;28;20058;-62
2022/08/13 00:26:52;;;;;;;4.32;2.22;;;19.70;98.40;;;;;;4979705;28;20081;-62
2022/08/13 00:29:19;;;;;;;6.13;2.75;;;19.60;98.50;;;;;;4993305;28;20050;-62
2022/08/13 00:31:46;;;;;;;5.50;2.63;;;19.60;98.90;;;;;;4994376;28;20089;-62
2022/08/13 00:34:13;;;;;;;6.30;2.78;;;19.60;98.90;;;;;;4976665;28;20051;-62
2022/08/13 00:36:39;;;;;;;6.97;2.75;;;19.50;99.00;;;;;;4993601;28;20054;-62
2022/08/13 00:39:09;;;;;;;5.22;2.53;;;19.50;99.10;;;;;;4972903;28;20086;-62
2022/08/13 00:41:38;;;;;;;5.45;3.00;;;19.50;99.30;;;;;;4974320;28;20549;-63
2022/08/13 00:44:07;;;;;;;4.97;2.78;;;19.40;99.30;;;;;;4974031;28;20051;-64
2022/08/13 00:46:35;;;;;;;6.90;2.63;;;19.40;99.60;;;;;;4957451;28;20094;-62
2022/08/13 00:49:03;;;;;;;5.35;2.90;;;19.40;99.60;;;;;;4957267;28;20105;-62
2022/08/13 00:51:35;;;;;;;4.72;2.83;;;19.40;99.70;;;;;;4956541;28;20062;-62
2022/08/13 00:54:03;;;;;;;7.50;2.88;;;19.40;99.70;;;;;;4958049;28;20515;-62
2022/08/13 00:56:33;;;;;;;3.83;2.72;;;19.40;99.90;;;;;;4955638;28;20088;-63
2022/08/13 00:59:07;;;;;;;5.78;2.63;;;19.40;99.90;;;;;;4973476;28;20053;-62
2022/08/13 01:01:35;;;;;;;4.32;3.00;;;19.30;99.90;;;;;;4973625;28;20085;-62
2022/08/13 01:04:03;;;;;;;4.32;2.70;;;19.30;99.90;;;;;;4974060;28;20054;-61
2022/08/13 01:06:31;;;;;;;3.92;3.03;;;19.30;99.90;;;;;;4973615;28;20055;-62
2022/08/13 01:08:58;;;;;;;7.47;3.10;;;19.30;99.90;;;;;;4960432;28;20056;-62
2022/08/13 01:11:28;;;;;;;5.65;2.70;;;19.20;99.90;;;;;;4975168;28;20568;-61
2022/08/13 01:13:58;;;;;;;7.82;3.00;;;19.20;99.90;;;;;;4976287;28;20121;-63
2022/08/13 01:16:29;;;;;;;7.97;2.95;;;19.20;99.90;;;;;;4993489;28;20061;-62
2022/08/13 01:18:56;;;;;;;6.63;3.50;;;19.20;99.90;;;;;;4975762;28;20379;-61
2022/08/13 01:21:26;;;;;;;5.10;2.90;;;19.20;99.90;;;;;;4976209;28;20081;-62
2022/08/13 01:23:55;;;;;;;11.35;2.80;;;19.10;99.90;;;;;;4987587;28;20451;-62
2022/08/13 01:26:23;;;;;;;3.97;2.83;;;19.10;99.90;;;;;;4973703;28;20461;-62
2022/08/13 01:28:52;;;;;;;8.75;2.80;;;19.10;99.90;;;;;;4974080;28;20051;-62
2022/08/13 01:31:20;;;;;;;5.60;2.72;;;19.10;99.90;;;;;;4973753;28;20098;-62
2022/08/13 01:33:49;;;;;;;4.68;2.92;;;19.10;99.90;;;;;;4973281;28;20553;-63
2022/08/13 01:36:17;;;;;;;7.93;3.45;;;19.00;99.90;;;;;;4974076;28;20059;-62
2022/08/13 01:38:44;;;;;;;6.63;3.20;;;19.00;99.90;;;;;;4961768;28;20050;-62
2022/08/13 01:41:12;;;;;;;4.32;3.38;;;18.90;99.90;;;;;;4992995;28;20093;-62
2022/08/13 01:43:41;;;;;;;5.55;3.00;;;18.90;99.90;;;;;;4975970;28;20494;-62
2022/08/13 01:46:10;;;;;;;5.38;2.78;;;18.90;99.90;;;;;;4975761;28;20174;-62
2022/08/13 01:51:29;;;;;;;10.95;2.88;;;18.90;99.90;;;;;;4992650;28;20491;-62
2022/08/13 01:53:59;;;;;;;5.05;2.92;;;18.90;99.90;;;;;;4975486;28;20461;-62
2022/08/13 01:56:29;;;;;;;4.65;3.35;;;18.80;99.90;;;;;;4993293;28;20061;-62
2022/08/13 01:58:57;;;;;;;;;;;18.80;99.90;;;;;;4975695;28;20105;-62
2022/08/13 02:01:26;;;;;;;5.68;2.78;;;18.80;99.90;;;;;;4992750;28;19921;-62
2022/08/13 02:03:56;;;;;;;6.22;3.45;;;18.70;99.90;;;;;;4986872;28;20105;-62
2022/08/13 02:06:23;;;;;;;4.85;3.15;;;18.70;99.90;;;;;;4956506;28;20109;-62
2022/08/13 02:08:51;;;;;;;8.88;3.00;;;18.70;99.90;;;;;;4955771;28;20110;-62
2022/08/13 02:11:18;;;;;;;6.20;3.05;;;18.70;99.90;;;;;;4973451;28;20065;-62
2022/08/13 02:13:52;;;;;;;7.32;3.33;;;18.70;99.90;;;;;;4975569;28;20055;-62
2022/08/13 02:16:19;;;;;;;5.28;3.30;;;18.70;99.90;;;;;;4977034;28;20133;-62
2022/08/13 02:18:46;;;;;;;10.93;3.03;;;18.60;99.90;;;;;;4966584;28;20054;-61
2022/08/13 02:21:13;;;;;;;7.72;3.03;;;18.60;99.90;;;;;;4996330;28;20050;-62
2022/08/13 02:23:40;;;;;;;4.25;2.72;;;18.60;99.90;;;;;;4995746;28;20073;-62
2022/08/13 02:26:08;;;;;;;8.80;3.30;;;18.60;99.90;;;;;;4996784;28;20042;-63
2022/08/13 02:28:37;;;;;;;4.97;3.03;;;18.50;99.90;;;;;;4996538;28;20076;-62
2022/08/13 02:31:05;;;;;;;6.47;3.45;;;18.50;99.90;;;;;;4977969;28;20054;-62
2022/08/13 02:33:37;;;;;;;9.23;3.25;;;18.50;99.90;;;;;;4979005;28;20482;-62
2022/08/13 02:36:10;;;;;;;5.30;3.35;;;18.40;99.90;;;;;;4995740;28;20097;-62
2022/08/13 02:38:38;;;;;;;5.10;3.00;;;18.40;99.90;;;;;;4996637;28;20108;-62
2022/08/13 02:43:50;;;;;;;5.32;3.17;;;18.30;99.90;;;;;;4995696;28;20057;-62
2022/08/13 02:46:21;;;;;;;7.07;3.55;;;18.30;99.90;;;;;;4996077;28;20113;-62
2022/08/13 02:48:48;;;;;;;5.40;3.10;;;18.30;99.90;;;;;;4995756;28;20410;-62
2022/08/13 02:51:15;;;;;;;5.20;3.15;;;18.30;99.90;;;;;;4978171;28;20058;-62
2022/08/13 02:53:42;;;;;;;4.97;3.08;;;18.30;99.90;;;;;;4996298;28;20458;-62
2022/08/13 02:56:09;;;;;;;6.13;3.22;;;18.20;99.90;;;;;;4995781;28;20572;-62
2022/08/13 02:58:38;;;;;;;6.03;2.95;;;18.20;99.90;;;;;;4995496;28;20050;-61
2022/08/13 03:01:05;;;;;;;6.70;3.15;;;18.20;99.90;;;;;;4994967;28;20101;-62
2022/08/13 03:03:34;;;;;;;8.25;3.58;;;18.20;99.90;;;;;;4978219;28;20058;-62
2022/08/13 03:06:01;;;;;;;4.97;2.97;;;18.10;99.90;;;;;;4993631;28;20093;-62
2022/08/13 03:08:28;;;;;;;6.70;3.75;;;18.10;99.90;;;;;;4978650;28;20104;-62
2022/08/13 03:10:56;;;;;;;5.35;2.90;;;18.10;99.90;;;;;;4995402;28;20057;-62
2022/08/13 03:13:27;;;;;;;5.60;3.38;;;18.10;99.90;;;;;;4978131;28;20092;-62
2022/08/13 03:15:55;;;;;;;7.28;3.40;;;18.10;99.90;;;;;;4994995;28;20061;-61
2022/08/13 03:18:23;;;;;;;6.30;3.25;;;18.10;99.90;;;;;;4977938;28;20058;-62
2022/08/13 03:20:51;;;;;;;5.40;3.20;;;18.10;99.90;;;;;;4978137;28;20409;-62
2022/08/13 03:23:20;;;;;;;8.18;3.30;;;18.10;99.90;;;;;;4974647;28;20557;-61
2022/08/13 03:25:47;;;;;;;4.65;2.88;;;18.10;99.90;;;;;;4974824;28;20574;-62
2022/08/13 03:28:14;;;;;;;6.60;3.30;;;18.10;99.90;;;;;;4975961;28;20171;-62
2022/08/13 03:30:41;;;;;;;7.57;3.40;;;18.00;99.90;;;;;;4975227;28;20551;-61
2022/08/13 03:33:11;;;;;;;5.43;3.63;;;18.10;99.90;;;;;;4974197;28;20058;-61
2022/08/13 03:35:38;;;;;;;6.72;3.50;;;18.00;99.90;;;;;;4975829;28;20043;-62
2022/08/13 03:38:10;;;;;;;5.53;3.42;;;18.00;99.90;;;;;;4975522;28;20101;-62
2022/08/13 03:43:23;;;;;;;5.70;3.78;;;18.00;99.90;;;;;;4975703;28;20051;-62
2022/08/13 03:45:50;;;;;;;6.47;3.45;;;17.90;99.90;;;;;;4974933;28;20046;-62
2022/08/13 03:48:17;;;;;;;6.25;3.58;;;17.90;99.90;;;;;;4974713;28;20085;-61
2022/08/13 03:50:46;;;;;;;4.85;3.40;;;17.90;99.90;;;;;;4974037;28;20537;-63
2022/08/13 03:53:16;;;;;;;6.22;3.35;;;17.90;99.90;;;;;;4973658;28;20108;-63
2022/08/13 03:55:43;;;;;;;7.32;3.70;;;17.80;99.90;;;;;;4974641;28;20051;-63
2022/08/13 03:58:12;;;;;;;5.97;3.75;;;17.80;99.90;;;;;;4975353;28;20097;-62
2022/08/13 04:00:41;;;;;;;8.15;3.35;;;17.90;99.90;;;;;;4972841;28;20094;-62
2022/08/13 04:03:19;;;;;;;5.90;3.65;;;17.90;99.90;;;;;;4963548;28;20054;-63
2022/08/13 04:05:46;;;;;;;5.32;3.53;;;17.80;99.90;;;;;;4955501;29;20055;-63
2022/08/13 04:08:14;;;;;;;9.63;3.40;;;17.80;99.90;;;;;;4958762;28;20569;-63
2022/08/13 04:10:42;;;;;;;5.38;3.45;;;17.80;99.90;;;;;;4973761;28;20138;-61
2022/08/13 04:13:12;;;;;;;6.38;3.22;;;17.80;99.90;;;;;;4973898;28;20445;-62
2022/08/13 04:15:41;;;;;;;;;;;17.80;99.90;;;;;;4974933;28;20053;-62
2022/08/13 04:18:08;;;;;;;6.03;3.35;;;17.80;99.90;;;;;;4974733;28;19922;-62
2022/08/13 04:20:37;;;;;;;6.40;2.90;;;17.80;99.90;;;;;;4973596;28;20454;-61
2022/08/13 04:23:08;;;;;;;7.35;3.42;;;17.80;99.90;;;;;;4980423;28;20073;-62
2022/08/13 04:25:37;;;;;;;6.07;2.83;;;17.80;99.90;;;;;;4994566;28;20042;-63
2022/08/13 04:28:04;;;;;;;10.85;3.03;;;17.80;99.90;;;;;;4977033;28;20061;-61
2022/08/13 04:30:35;;;;;;;6.25;3.65;;;17.80;99.90;;;;;;4975989;28;20054;-63
2022/08/13 04:33:03;;;;;;;4.68;3.88;;;17.80;99.90;;;;;;4976874;28;20054;-62
2022/08/13 04:35:30;;;;;;;6.22;3.13;;;17.80;99.90;;;;;;4993770;28;20048;-62
2022/08/13 04:37:58;;;;;;;7.93;3.25;;;17.80;99.90;;;;;;4992938;28;20490;-62
2022/08/13 04:40:25;;;;;;;5.88;3.40;;;17.80;99.90;;;;;;4993841;28;20058;-62
2022/08/13 04:42:55;;;;;;;8.98;3.42;;;17.80;99.90;;;;;;4993582;28;20061;-62
2022/08/13 04:45:23;;;;;;;8.80;3.65;;;17.80;99.90;;;;;;4993924;28;20556;-62
2022/08/13 04:47:50;;;;;;;8.02;3.50;;;17.80;99.90;;;;;;4976271;28;20141;-63
2022/08/13 04:50:17;;;;;;;6.32;3.35;;;17.90;99.90;;;;;;4974640;28;20062;-62
2022/08/13 04:52:44;;;;;;;8.75;3.33;;;17.90;99.90;;;;;;4976759;28;20136;-62
2022/08/13 04:55:12;;;;;;;6.70;2.97;;;18.00;99.90;;;;;;4993778;28;20445;-62
2022/08/13 04:57:41;;;;;;;5.43;3.72;;;18.00;99.90;;;;;;4991743;28;20054;-62
2022/08/13 05:00:10;;;;;;;7.47;3.28;;;18.10;99.90;;;;;;4992584;28;20054;-62
2022/08/13 05:02:38;;;;;;;7.65;3.67;;;18.20;99.90;;;;;;4993020;28;20127;-62
2022/08/13 05:05:06;;;;;;;7.85;3.50;;;18.20;99.90;;;;;;4991104;28;20090;-62
2022/08/13 05:07:34;;;;;;;6.15;3.40;;;18.20;99.90;;;;;;4993532;28;20057;-62
2022/08/13 05:10:01;;;;;;;10.15;3.97;;;18.20;99.90;;;;;;4993271;28;20108;-62
2022/08/13 05:12:28;;;;;;;7.80;3.20;;;18.30;99.90;;;;;;4975714;28;20058;-63
2022/08/13 05:14:55;;;;;;;6.53;2.80;;;18.30;99.70;;;;;;4976156;28;20046;-62
2022/08/13 05:17:25;;;;;;;6.72;3.25;;;18.40;99.50;;;;;;4993678;28;20104;-61
2022/08/13 05:19:52;;;;;;;4.65;3.10;;;18.50;99.40;;;;;;4992255;28;20486;-62
2022/08/13 05:22:23;;;;;;;5.88;3.00;;;18.50;99.70;;;;;;4992416;28;20050;-63
2022/08/13 05:24:50;;;;;;;5.82;2.90;;;18.50;99.50;;;;;;4973480;28;20121;-62
2022/08/13 05:27:17;;;;;;;5.32;3.00;;;18.70;99.70;;;;;;4974063;28;20454;-61
2022/08/13 05:29:44;;;;;;;5.05;2.90;;;18.80;99.80;;;;;;4973942;28;20054;-62
2022/08/13 05:32:11;;;;;;;5.72;2.83;;;19.00;99.70;;;;;;4972911;28;20054;-63
2022/08/13 05:34:39;;;;;;;6.63;2.60;;;19.10;99.30;;;;;;4973814;28;20050;-62
2022/08/13 05:37:07;;;;;;;6.18;3.15;;;19.10;98.90;;;;;;4956708;28;20142;-62
2022/08/13 05:39:34;;;;;;;4.78;2.72;;;19.20;98.40;;;;;;4973215;28;20046;-62
2022/08/13 05:42:01;;;;;;;5.18;2.60;;;19.40;98.00;;;;;;4956524;28;20050;-63
2022/08/13 05:44:28;;;;;;;7.18;2.80;;;19.40;97.60;;;;;;4956326;28;20059;-63
2022/08/13 05:46:55;;;;;;;8.43;2.42;;;19.60;97.30;;;;;;4956291;28;20066;-62
2022/08/13 05:49:23;;;;;;;6.07;2.80;;;19.80;97.00;;;;;;4940819;29;20059;-63
2022/08/13 05:51:52;;;;;;;6.93;3.13;;;19.90;96.50;;;;;;4957949;29;20411;-63
2022/08/13 05:54:19;;;;;;;9.27;3.20;;;20.20;96.10;;;;;;4940867;29;20475;-63
2022/08/13 05:56:46;;;;;;;4.03;2.72;;;20.30;95.80;;;;;;4958555;29;20061;-62
2022/08/13 06:04:50;;;;;;;4.72;2.42;;;21.10;94.60;;;;;;4905421;29;20052;-62
2022/08/13 06:07:19;;;;;;;6.82;2.45;;;21.50;95.00;;;;;;4929250;28;20085;-62
2022/08/13 06:09:46;;;;;;;7.47;2.70;;;21.80;94.70;;;;;;4971197;28;20086;-62
2022/08/13 06:12:14;;;;;;;3.83;2.47;;;22.00;94.10;;;;;;4956517;28;20083;-62
2022/08/13 06:14:41;;;;;;;5.15;2.80;;;22.20;93.80;;;;;;4956386;28;20051;-62
2022/08/13 06:17:08;;;;;;;4.97;2.33;;;22.50;93.20;;;;;;4940408;29;20058;-62
2022/08/13 06:19:36;;;;;;;6.43;2.28;;;22.80;92.60;;;;;;4956874;28;20098;-63
2022/08/13 06:22:04;;;;;;;3.58;2.25;;;23.10;92.20;;;;;;4938994;28;20111;-61
2022/08/13 06:24:35;;;;;;;4.63;2.47;;;23.30;91.40;;;;;;4992531;28;20051;-61
2022/08/13 06:27:05;;;;;;;6.13;2.80;;;23.50;90.50;;;;;;4991725;28;20096;-61
2022/08/13 06:29:35;;;;;;;4.32;2.38;;;23.70;90.30;;;;;;4977833;28;20049;-62
2022/08/13 06:32:03;;;;;;;5.68;2.30;;;24.00;90.10;;;;;;4975177;28;20058;-62
2022/08/13 06:34:31;;;;;;;6.43;2.08;;;24.40;89.20;;;;;;4977147;28;20061;-61
2022/08/13 06:36:59;;;;;;;4.77;2.63;;;24.90;87.50;;;;;;4975339;28;20094;-61
2022/08/13 06:39:28;;;;;;;6.80;2.40;;;25.30;85.50;;;;;;4975527;28;20569;-62
2022/08/13 06:41:59;;;;;;;4.55;2.10;;;25.80;83.60;;;;;;4958115;28;20117;-63
2022/08/13 06:44:26;;;;;;;5.95;2.42;;;26.20;81.50;;;;;;4958355;28;20054;-61
2022/08/13 06:46:54;;;;;;;7.32;2.65;;;26.80;80.40;;;;;;4985314;28;20050;-62
2022/08/13 06:49:21;;;;;;;4.43;2.03;;;27.30;78.70;;;;;;4964922;28;20541;-62
2022/08/13 06:51:47;;;;;;;4.13;2.13;;;27.90;77.40;;;;;;4978964;28;20105;-62
2022/08/13 06:54:14;;;;;;;5.32;2.33;;;28.20;75.60;;;;;;4984549;28;20451;-62
2022/08/13 06:56:41;;;;;;;6.07;2.20;;;28.50;74.50;;;;;;4964183;28;20046;-62
2022/08/13 06:59:13;;;;;;;4.47;1.83;;;28.70;73.60;;;;;;4959444;28;20058;-62
2022/08/13 07:01:42;;;;;;;6.82;2.20;;;29.00;72.60;;;;;;4988921;28;20053;-62
2022/08/13 07:04:15;;;;;;;3.65;1.83;;;29.30;72.10;;;;;;4975275;28;20118;-63
2022/08/13 07:06:44;;;;;;;5.53;1.90;;;29.60;71.50;;;;;;4967123;28;20053;-63
2022/08/13 07:09:11;;;;;;;4.15;1.73;;;30.10;70.80;;;;;;4975331;28;20173;-62
2022/08/13 07:11:38;;;;;;;7.15;1.90;;;30.50;70.00;;;;;;4981984;28;20561;-62
2022/08/13 07:14:04;;;;;;;6.32;1.80;;;30.90;69.20;;;;;;4974437;28;20092;-63
2022/08/13 07:16:34;;;;;;;4.20;1.98;;;31.40;68.40;;;;;;4956789;28;20046;-63
2022/08/13 07:19:01;;;;;;;4.82;1.90;;;31.70;67.80;;;;;;4974107;28;20475;-63
2022/08/13 07:21:30;;;;;;;7.25;1.73;;;32.00;67.30;;;;;;4956847;28;20586;-62
2022/08/13 07:23:58;;;;;;;5.93;1.70;;;32.00;66.20;;;;;;4974431;28;20503;-64
2022/08/13 07:26:30;;;;;;;6.40;1.85;;;32.10;66.00;;;;;;4966286;28;20629;-61
2022/08/13 07:28:57;;;;;;;3.97;1.85;;;32.60;65.20;;;;;;4965725;28;20058;-62
2022/08/13 07:31:26;;;;;;;4.20;2.08;;;32.80;65.20;;;;;;4956270;28;20109;-62
2022/08/13 07:33:57;;;;;;;6.47;1.35;;;33.00;64.70;;;;;;4983361;28;20055;-62
2022/08/13 07:36:27;;;;;;;3.88;1.45;;;33.20;63.70;;;;;;4963137;28;20499;-62
2022/08/13 07:38:54;;;;;;;4.88;1.55;;;33.40;63.70;;;;;;4956961;28;20059;-62
2022/08/13 07:41:22;;;;;;;3.97;1.50;;;33.70;63.40;;;;;;4975637;28;20039;-62
2022/08/13 07:43:49;;;;;;;4.40;1.50;;;34.00;63.00;;;;;;4974022;28;20145;-62
2022/08/13 07:46:17;;;;;;;2.88;1.52;;;34.30;62.80;;;;;;4976009;28;20105;-62
2022/08/13 07:48:47;;;;;;;5.20;1.50;;;34.30;62.30;;;;;;4957133;28;20062;-62
2022/08/13 07:51:19;;;;;;;4.30;1.48;;;34.60;61.30;;;;;;4972415;28;20510;-62
2022/08/13 07:53:47;;;;;;;5.50;1.50;;;35.00;60.40;;;;;;4979509;28;20406;-62
2022/08/13 07:56:19;;;;;;;4.70;1.52;;;35.00;59.20;;;;;;4977928;28;20100;-62
2022/08/13 07:58:46;;;;;;;5.55;1.40;;;35.20;57.30;;;;;;4973262;28;20165;-62
2022/08/13 08:01:13;;;;;;;4.85;1.75;;;34.90;58.90;;;;;;4992653;28;20100;-63
2022/08/13 08:03:42;;;;;;;3.90;1.20;;;35.00;58.60;;;;;;4976153;28;20136;-63
2022/08/13 08:06:14;;;;;;;2.70;1.20;;;35.30;58.40;;;;;;4993376;28;20073;-62
2022/08/13 08:08:43;;;;;;;3.67;1.23;;;35.50;58.60;;;;;;4992915;28;20054;-63
2022/08/13 08:12:30;;;;;;;3.87;1.20;;;35.80;58.40;;;;;;4976670;28;20064;-63
2022/08/13 08:13:59;;;;;;;3.83;1.30;;;36.10;58.50;;;;;;4993044;28;20456;-62
2022/08/13 08:16:29;;;;;;;3.97;1.33;;;36.40;58.10;;;;;;4994390;28;20054;-62
2022/08/13 08:18:56;;;;;;;4.15;1.17;;;36.60;57.70;;;;;;4992569;28;20490;-61
2022/08/13 08:21:25;;;;;;;4.43;1.45;;;36.70;57.00;;;;;;4993936;28;20117;-62
2022/08/13 08:23:56;;;;;;;3.10;1.40;;;36.80;56.60;;;;;;4976892;28;20086;-62
2022/08/13 08:26:26;;;;;;;6.53;1.17;;;36.90;55.80;;;;;;4994503;28;20050;-63
2022/08/13 08:28:54;;;;;;;8.82;1.10;;;37.10;56.10;;;;;;4976512;28;20453;-63
2022/08/13 08:31:21;;;;;;;5.22;1.40;;;37.10;55.20;;;;;;4994520;28;20438;-62
2022/08/13 08:33:48;;;;;;;2.03;1.23;;;37.50;54.90;;;;;;4994255;28;20494;-62
2022/08/13 08:36:15;;;;;;;3.58;1.10;;;37.50;55.40;;;;;;4993672;28;20090;-62
2022/08/13 08:44:24;;;;;;;9.82;1.38;;;37.30;55.00;;;;;;4994176;28;20050;-62
2022/08/13 08:46:54;;;;;;;8.55;1.00;;;37.60;54.00;;;;;;4976629;28;20101;-63
2022/08/13 08:49:22;;;;;;;2.38;0.98;;;37.50;53.80;;;;;;4976030;28;20061;-63
2022/08/13 08:51:50;;;;;;;6.15;1.40;;;37.50;53.90;;;;;;4976440;28;20549;-62
2022/08/13 08:54:18;;;;;;;4.22;1.05;;;37.70;54.10;;;;;;4993777;28;20042;-62
2022/08/13 08:56:47;;;;;;;5.23;1.00;;;37.50;54.00;;;;;;4993500;28;20146;-62
2022/08/13 08:59:15;;;;;;;8.60;1.17;;;37.80;54.10;;;;;;4993859;28;20096;-62
2022/08/13 09:01:44;;;;;;;4.67;1.20;;;38.10;53.80;;;;;;4976463;28;20097;-63
2022/08/13 09:04:12;;;;;;;4.95;1.00;;;38.30;53.30;;;;;;4976018;28;20054;-63
2022/08/13 09:06:38;;;;;;;3.80;1.00;;;38.20;53.10;;;;;;4976453;28;20434;-62
2022/08/13 09:09:07;;;;;;;3.28;1.00;;;38.20;52.90;;;;;;4976370;28;20058;-63
2022/08/13 09:11:37;;;;;;;3.72;1.27;;;38.30;52.70;;;;;;4993177;28;20047;-62
2022/08/13 09:14:08;;;;;;;3.45;0.93;;;38.80;52.60;;;;;;4976257;28;20104;-62
2022/08/13 09:16:37;;;;;;;3.13;0.93;;;38.90;52.20;;;;;;4976511;28;20053;-63
2022/08/13 09:19:06;;;;;;;3.90;1.00;;;39.00;51.60;;;;;;4993083;28;20135;-63
2022/08/13 09:21:33;;;;;;;3.67;1.20;;;38.80;51.40;;;;;;4976337;28;20512;-63
2022/08/13 09:24:01;;;;;;;2.35;1.08;;;38.60;51.40;;;;;;4974425;28;20058;-63
2022/08/13 09:26:28;;;;;;;3.67;1.10;;;38.30;51.80;;;;;;4975246;28;20105;-62
2022/08/13 09:28:58;;;;;;;5.90;0.90;;;38.70;51.50;;;;;;4993147;28;20482;-63
2022/08/13 09:31:26;;;;;;;2.10;1.17;;;38.70;51.70;;;;;;4992712;28;20125;-63
2022/08/13 09:33:53;;;;;;;3.13;0.95;;;38.90;51.90;;;;;;4976048;28;20510;-63
2022/08/13 09:36:24;;;;;;;3.58;1.00;;;39.10;51.70;;;;;;4975982;28;20050;-64
2022/08/13 09:38:51;;;;;;;3.40;0.98;;;39.30;51.20;;;;;;4992551;28;20051;-63
2022/08/13 09:41:26;;;;;;;4.38;0.98;;;39.40;50.50;;;;;;4976286;28;20189;-63
2022/08/13 09:43:57;;;;;;;2.83;1.20;;;39.40;50.00;;;;;;4975896;28;20054;-63
2022/08/13 09:46:24;;;;;;;2.22;0.82;;;39.20;50.50;;;;;;4975371;28;20061;-63
2022/08/13 09:48:54;;;;;;;4.20;1.17;;;39.10;50.90;;;;;;4975903;28;20556;-63
2022/08/13 09:51:22;;;;;;;2.13;1.05;;;39.30;50.60;;;;;;4993456;28;20050;-62
2022/08/13 09:53:50;;;;;;;3.50;1.10;;;39.20;50.50;;;;;;4992513;28;20054;-63
2022/08/13 09:56:17;;;;;;;6.18;1.45;;;38.60;50.10;;;;;;4975771;28;20046;-63
2022/08/13 09:58:46;;;;;;;2.75;0.90;;;38.60;50.10;;;;;;4993353;28;20061;-64
2022/08/13 10:01:13;;;;;;;4.03;0.90;;;38.30;50.40;;;;;;4975538;28;20468;-63
2022/08/13 10:03:42;;;;;;;3.45;1.10;;;38.40;50.50;;;;;;4975788;28;20129;-63
2022/08/13 10:06:11;;;;;;;2.42;0.90;;;38.70;50.40;;;;;;4992510;28;20498;-64
2022/08/13 10:08:38;;;;;;;3.63;0.95;;;38.70;50.00;;;;;;4975162;28;20054;-64
2022/08/13 10:11:05;;;;;;;4.43;1.15;;;38.70;50.00;;;;;;4993038;28;20050;-63
2022/08/13 10:13:33;;;;;;;3.60;0.95;;;38.80;50.00;;;;;;4973274;28;20054;-63
2022/08/13 10:16:00;;;;;;;2.78;1.10;;;38.80;49.90;;;;;;4986275;28;20096;-62
2022/08/13 10:18:28;;;;;;;2.28;1.00;;;38.80;49.50;;;;;;4988773;28;20113;-63
2022/08/13 10:20:55;;;;;;;4.28;1.02;;;38.80;49.30;;;;;;4974851;28;20068;-63
2022/08/13 10:23:23;;;;;;;2.85;1.00;;;38.60;49.00;;;;;;4965091;28;20054;-63
2022/08/13 10:25:52;;;;;;;4.18;1.00;;;38.60;49.30;;;;;;4984472;28;20058;-63
2022/08/13 10:28:23;;;;;;;5.07;1.23;;;38.40;49.20;;;;;;4986590;28;20414;-64
2022/08/13 10:30:50;;;;;;;3.22;0.90;;;38.50;49.70;;;;;;4984502;28;20055;-63
2022/08/13 10:33:18;;;;;;;2.33;1.00;;;38.40;49.30;;;;;;4983166;28;20050;-63
2022/08/13 10:35:52;;;;;;;2.10;1.00;;;38.80;49.30;;;;;;4987388;28;20085;-63
2022/08/13 10:38:20;;;;;;;1.92;0.90;;;39.00;50.10;;;;;;4991412;28;20042;-63
2022/08/13 10:40:49;;;;;;;4.47;1.00;;;39.10;49.40;;;;;;4971813;28;20066;-63
2022/08/13 10:43:17;;;;;;;2.05;1.08;;;39.20;49.30;;;;;;4987102;28;20068;-64
2022/08/13 10:45:46;;;;;;;2.33;0.98;;;39.10;49.40;;;;;;4972720;28;20093;-64
2022/08/13 10:48:14;;;;;;;1.95;1.00;;;39.00;49.00;;;;;;4975417;28;20050;-63
2022/08/13 10:50:41;;;;;;;2.58;0.98;;;39.00;48.70;;;;;;4988148;28;20510;-63
2022/08/13 10:53:08;;;;;;;5.10;1.00;;;39.10;48.80;;;;;;4987472;28;20146;-63
2022/08/13 10:55:36;;;;;;;3.70;0.98;;;38.80;48.30;;;;;;4986520;28;20108;-63
2022/08/13 10:58:14;;;;;;;3.38;1.00;;;38.80;48.40;;;;;;4985328;28;20048;-63
2022/08/13 11:00:41;;;;;;;2.63;1.00;;;38.80;48.40;;;;;;4970938;28;20187;-63
2022/08/13 11:03:08;;;;;;;3.78;0.90;;;38.80;48.60;;;;;;4972250;28;20522;-63
2022/08/13 11:05:35;;;;;;;2.90;0.90;;;39.10;48.20;;;;;;4972379;28;20140;-63
2022/08/13 11:08:02;;;;;;;1.80;0.90;;;39.10;48.70;;;;;;4968056;28;20494;-63
2022/08/13 11:10:29;;;;;;;5.85;0.98;;;39.10;48.20;;;;;;4985727;28;20521;-63
2022/08/13 11:12:55;;;;;;;3.60;0.80;;;39.00;48.10;;;;;;4969226;28;20066;-62
2022/08/13 11:15:24;;;;;;;2.90;1.10;;;39.10;48.30;;;;;;4988827;28;20057;-63
2022/08/13 11:17:53;;;;;;;2.60;0.77;;;38.90;48.10;;;;;;4988444;28;20066;-63
2022/08/13 11:20:22;;;;;;;1.65;0.80;;;39.00;48.80;;;;;;4972636;28;20455;-62
2022/08/13 11:22:51;;;;;;;2.42;0.90;;;39.20;48.20;;;;;;4986202;28;20510;-63
2022/08/13 11:25:18;;;;;;;2.05;1.00;;;39.30;48.20;;;;;;4971529;28;20046;-62
2022/08/13 11:27:45;;;;;;;5.65;1.10;;;39.30;48.10;;;;;;4989125;28;20612;-63
2022/08/13 11:30:13;;;;;;;3.40;0.88;;;39.30;48.20;;;;;;4975095;28;20050;-63
2022/08/13 11:32:41;;;;;;;3.97;1.27;;;39.20;47.90;;;;;;4973102;28;20059;-63
2022/08/13 11:35:09;;;;;;;4.65;1.13;;;39.30;47.80;;;;;;4974317;28;20109;-63
2022/08/13 11:37:36;;;;;;;1.65;0.90;;;39.00;48.10;;;;;;4985039;28;20630;-63
2022/08/13 11:40:04;;;;;;;7.10;0.95;;;39.20;49.00;;;;;;4986382;28;20042;-63
2022/08/13 11:42:31;;;;;;;2.97;0.90;;;39.80;48.20;;;;;;4987085;28;20113;-63
2022/08/13 11:44:58;;;;;;;3.70;1.05;;;40.20;47.90;;;;;;4972439;28;20093;-63
2022/08/13 11:47:26;;;;;;;1.83;0.80;;;40.20;47.80;;;;;;4985656;28;20109;-63
2022/08/13 11:49:54;;;;;;;3.72;0.80;;;40.10;47.60;;;;;;4972732;28;20136;-63
2022/08/13 11:52:21;;;;;;;2.95;1.10;;;39.90;47.50;;;;;;4971041;28;20121;-63
2022/08/13 11:54:47;;;;;;;2.58;0.80;;;40.10;47.70;;;;;;4986669;28;20054;-63
2022/08/13 11:57:14;;;;;;;2.15;1.00;;;39.90;47.60;;;;;;4974177;28;20491;-63
2022/08/13 11:59:42;;;;;;;2.50;1.00;;;40.30;47.60;;;;;;4984001;28;20118;-63
2022/08/13 12:02:09;;;;;;;4.15;0.93;;;40.60;47.80;;;;;;4985635;28;20573;-63
2022/08/13 12:04:36;;;;;;;4.30;0.95;;;40.70;47.40;;;;;;4973666;28;20053;-63
2022/08/13 12:07:05;;;;;;;3.03;1.00;;;40.60;47.20;;;;;;4983924;28;20051;-63
2022/08/13 12:09:32;;;;;;;3.20;1.00;;;40.60;47.10;;;;;;4984461;28;20051;-63
2022/08/13 12:11:58;;;;;;;3.70;0.80;;;40.60;47.10;;;;;;4968414;28;20054;-62
2022/08/13 12:14:25;;;;;;;1.75;0.90;;;40.40;46.60;;;;;;4973989;28;20104;-63
2022/08/13 12:16:52;;;;;;;2.88;1.05;;;40.40;46.50;;;;;;4974508;28;20046;-63
2022/08/13 12:19:19;;;;;;;3.72;0.90;;;40.40;47.30;;;;;;4972679;28;20100;-63
2022/08/13 12:21:46;;;;;;;2.30;1.00;;;40.10;46.70;;;;;;4985434;28;20145;-63
2022/08/13 12:24:14;;;;;;;3.55;1.05;;;40.00;47.10;;;;;;4971041;28;20455;-63
2022/08/13 12:26:41;;;;;;;3.50;0.88;;;40.30;46.80;;;;;;4949028;28;20086;-63
2022/08/13 12:29:08;;;;;;;5.45;1.00;;;40.60;46.60;;;;;;4969715;28;20145;-63
2022/08/13 12:31:34;;;;;;;3.20;1.17;;;40.60;46.90;;;;;;4949236;28;20047;-63
2022/08/13 12:34:01;;;;;;;2.80;0.90;;;40.10;46.50;;;;;;4972443;28;20145;-63
2022/08/13 12:36:28;;;;;;;3.50;0.80;;;40.00;46.50;;;;;;4954413;28;20081;-63
2022/08/13 12:38:55;;;;;;;2.28;0.82;;;40.10;46.90;;;;;;4965377;28;20043;-63
2022/08/13 12:41:23;;;;;;;1.40;0.80;;;40.30;47.10;;;;;;4965546;28;20051;-63
2022/08/13 12:43:50;;;;;;;1.88;0.95;;;40.50;46.80;;;;;;4953264;28;20058;-63
2022/08/13 12:46:17;;;;;;;5.10;1.10;;;40.70;46.90;;;;;;4967711;28;20444;-63
2022/08/13 12:48:44;;;;;;;4.20;1.13;;;40.60;46.10;;;;;;4951709;28;20499;-64
2022/08/13 12:51:10;;;;;;;1.85;0.90;;;40.50;46.60;;;;;;4951909;28;20086;-64
2022/08/13 12:53:37;;;;;;;2.03;0.75;;;40.70;46.30;;;;;;4966879;28;20082;-62
2022/08/13 12:56:04;;;;;;;2.60;0.90;;;40.70;46.30;;;;;;4949263;28;20102;-62
2022/08/13 12:58:33;;;;;;;2.83;0.98;;;40.50;46.40;;;;;;4966007;28;20055;-62
2022/08/13 13:01:00;;;;;;;1.73;0.90;;;40.20;46.50;;;;;;4951930;28;20063;-62
2022/08/13 13:03:27;;;;;;;3.33;1.08;;;40.50;47.80;;;;;;4969501;28;20511;-63
2022/08/13 13:05:55;;;;;;;2.95;1.00;;;40.90;47.20;;;;;;4965679;28;20507;-62
2022/08/13 13:08:25;;;;;;;2.95;0.90;;;41.20;46.90;;;;;;4962752;28;20043;-63
2022/08/13 13:10:53;;;;;;;2.03;1.00;;;41.00;46.50;;;;;;4947927;28;20492;-64
2022/08/13 13:13:22;;;;;;;1.60;0.80;;;40.70;46.60;;;;;;4964691;28;20558;-63
2022/08/13 13:15:52;;;;;;;3.75;1.10;;;40.90;46.60;;;;;;4966525;28;20055;-63
2022/08/13 13:18:22;;;;;;;2.85;0.93;;;40.70;46.10;;;;;;4968688;28;20082;-63